Mary B. — WDD9748 — position and weather

sailwx.info

Track history (hours):
 
Tides and Currents Weather Stations Pressure Air Temp Water Temp Dewpoint Dewpoint Depression Visibility Wind Speed Wind Dir Waves Ship Positions

Mary B.

Owner: Bernert Barge Lines, Oregon City, OR. More information available from US FCC via Universal Licensing System and Coast Guard Vessel Documentation Center.

Last reported at 2018-Jan-20 15:25 UTC. Time now 2018-Jan-22 18:06 UTC.
Position N 46°06' W 122°56'.

MMSI: 333761398.

Date/timePositionNaut miles runAvg speedWind from/ knotsBaromVisibWave heightAir tempDewpointWater temp
2018-Jan-20 15:25N 46°06' W 122°56'0 0.5
2018-Jan-20 15:00N 46°06' W 122°56'0 0.0
2018-Jan-20 14:31N 46°06' W 122°56'2 3.6
2018-Jan-20 14:01N 46°07' W 122°58'2 4.1
2018-Jan-20 13:31N 46°06' W 122°56'0 0.7
2018-Jan-20 13:01N 46°06' W 122°56'0 0.2
2018-Jan-20 12:30N 46°05' W 122°56'0 0.0
2018-Jan-20 12:00N 46°05' W 122°56'1 2.1
2018-Jan-20 11:26N 46°06' W 122°58'0 0.1
2018-Jan-20 11:00N 46°06' W 122°57'0 0.0
2018-Jan-20 10:30N 46°06' W 122°57'0 0.1
2018-Jan-20 10:01N 46°06' W 122°57'0 0.1
2018-Jan-20 09:31N 46°06' W 122°57'0 0.1
2018-Jan-20 09:01N 46°06' W 122°57'1 1.3
2018-Jan-20 08:30N 46°06' W 122°57'4 7.3
2018-Jan-20 08:01N 46°03' W 122°53'4 7.8
2018-Jan-20 07:31N 45°60' W 122°51'4 7.7
2018-Jan-20 07:01N 45°56' W 122°48'4 7.8
2018-Jan-20 06:31N 45°52' W 122°47'4 7.5
2018-Jan-20 06:00N 45°48' W 122°47'4 7.4
2018-Jan-20 05:30N 45°45' W 122°46'4 7.3
2018-Jan-20 05:00N 45°41' W 122°46'3 6.4
2018-Jan-20 04:30N 45°39' W 122°44'4 7.1
2018-Jan-20 04:01N 45°37' W 122°40'4 7.0
2018-Jan-20 03:30N 45°36' W 122°35'4 7.1
2018-Jan-20 03:00N 45°35' W 122°30'4 6.8
2018-Jan-20 02:27N 45°34' W 122°24'3 6.9
2018-Jan-20 02:00N 45°33' W 122°20'3 7.0
2018-Jan-20 01:30N 45°33' W 122°15'4 7.1
2018-Jan-20 01:01N 45°35' W 122°11'3 6.6
2018-Jan-20 00:29N 45°35' W 122°06'  
2018-Jan-11 18:14N 46°05' W 122°56'0 2.3
2018-Jan-11 18:00N 46°06' W 122°56'0 0.6
2018-Jan-11 17:14N 46°05' W 122°56'0 0.0
2018-Jan-11 17:00N 46°05' W 122°56'1 1.2
2018-Jan-11 16:31N 46°06' W 122°55'0 0.0
2018-Jan-11 16:00N 46°06' W 122°55'1 1.2
2018-Jan-11 15:31N 46°05' W 122°56'0 0.0
2018-Jan-11 15:00N 46°05' W 122°56'0 0.0
2018-Jan-11 14:30N 46°05' W 122°56'0 0.0
2018-Jan-11 13:58N 46°05' W 122°56'0 0.0
2018-Jan-11 13:31N 46°05' W 122°56'0 0.0
2018-Jan-11 13:00N 46°05' W 122°56'0 0.0
2018-Jan-11 12:30N 46°05' W 122°56'0 0.0
2018-Jan-11 12:00N 46°05' W 122°56'2 4.4
2018-Jan-11 11:30N 46°07' W 122°58'1 1.0
2018-Jan-11 11:00N 46°06' W 122°58'1 1.4
2018-Jan-11 10:31N 46°06' W 122°57'3 6.5
2018-Jan-11 10:01N 46°04' W 122°53'4 7.6
2018-Jan-11 09:31N 46°01' W 122°51'4 7.3
2018-Jan-11 09:00N 45°57' W 122°49'4 7.3
2018-Jan-11 08:31N 45°54' W 122°48'4 7.2
2018-Jan-11 08:01N 45°50' W 122°47'4 7.0
2018-Jan-11 07:30N 45°47' W 122°46'4 7.2
2018-Jan-11 07:01N 45°43' W 122°46'4 7.2
2018-Jan-11 06:31N 45°40' W 122°46'4 7.3
2018-Jan-11 06:00N 45°38' W 122°41'3 6.7
2018-Jan-11 05:31N 45°36' W 122°37'4 7.8
2018-Jan-11 05:00N 45°35' W 122°32'4 7.9
2018-Jan-11 04:30N 45°34' W 122°26'4 7.8
2018-Jan-11 04:00N 45°34' W 122°21'4 7.3
2018-Jan-11 03:30N 45°33' W 122°16'4 7.5
2018-Jan-11 03:01N 45°34' W 122°11'4 7.0
2018-Jan-11 02:26N 45°35' W 122°06'4 8.7
2018-Jan-11 02:00N 45°37' W 122°01'5 2.9
2018-Jan-11 00:19N 45°39' W 121°54'2 6.4
2018-Jan-10 23:58N 45°41' W 121°53'  
Track history (hours):
 
Tides and Currents Weather Stations Pressure Air Temp Water Temp Dewpoint Dewpoint Depression Visibility Wind Speed Wind Dir Waves Ship Positions

Mary B.

Owner: Bernert Barge Lines, Oregon City, OR. More information available from US FCC via Universal Licensing System and Coast Guard Vessel Documentation Center.

Last reported at 2018-Jan-20 15:25 UTC. Time now 2018-Jan-22 18:06 UTC.
Position N 46°06' W 122°56'.

MMSI: 333761398.

Date/timePositionNaut miles runAvg speedWind from/ knotsBaromVisibWave heightAir tempDewpointWater temp
2018-Jan-20 15:25N 46°06' W 122°56'0 0.5
2018-Jan-20 15:00N 46°06' W 122°56'0 0.0
2018-Jan-20 14:31N 46°06' W 122°56'2 3.6
2018-Jan-20 14:01N 46°07' W 122°58'2 4.1
2018-Jan-20 13:31N 46°06' W 122°56'0 0.7
2018-Jan-20 13:01N 46°06' W 122°56'0 0.2
2018-Jan-20 12:30N 46°05' W 122°56'0 0.0
2018-Jan-20 12:00N 46°05' W 122°56'1 2.1
2018-Jan-20 11:26N 46°06' W 122°58'0 0.1
2018-Jan-20 11:00N 46°06' W 122°57'0 0.0
2018-Jan-20 10:30N 46°06' W 122°57'0 0.1
2018-Jan-20 10:01N 46°06' W 122°57'0 0.1
2018-Jan-20 09:31N 46°06' W 122°57'0 0.1
2018-Jan-20 09:01N 46°06' W 122°57'1 1.3
2018-Jan-20 08:30N 46°06' W 122°57'4 7.3
2018-Jan-20 08:01N 46°03' W 122°53'4 7.8
2018-Jan-20 07:31N 45°60' W 122°51'4 7.7
2018-Jan-20 07:01N 45°56' W 122°48'4 7.8
2018-Jan-20 06:31N 45°52' W 122°47'4 7.5
2018-Jan-20 06:00N 45°48' W 122°47'4 7.4
2018-Jan-20 05:30N 45°45' W 122°46'4 7.3
2018-Jan-20 05:00N 45°41' W 122°46'3 6.4
2018-Jan-20 04:30N 45°39' W 122°44'4 7.1
2018-Jan-20 04:01N 45°37' W 122°40'4 7.0
2018-Jan-20 03:30N 45°36' W 122°35'4 7.1
2018-Jan-20 03:00N 45°35' W 122°30'4 6.8
2018-Jan-20 02:27N 45°34' W 122°24'3 6.9
2018-Jan-20 02:00N 45°33' W 122°20'3 7.0
2018-Jan-20 01:30N 45°33' W 122°15'4 7.1
2018-Jan-20 01:01N 45°35' W 122°11'3 6.6
2018-Jan-20 00:29N 45°35' W 122°06'  
2018-Jan-11 18:14N 46°05' W 122°56'0 2.3
2018-Jan-11 18:00N 46°06' W 122°56'0 0.6
2018-Jan-11 17:14N 46°05' W 122°56'0 0.0
2018-Jan-11 17:00N 46°05' W 122°56'1 1.2
2018-Jan-11 16:31N 46°06' W 122°55'0 0.0
2018-Jan-11 16:00N 46°06' W 122°55'1 1.2
2018-Jan-11 15:31N 46°05' W 122°56'0 0.0
2018-Jan-11 15:00N 46°05' W 122°56'0 0.0
2018-Jan-11 14:30N 46°05' W 122°56'0 0.0
2018-Jan-11 13:58N 46°05' W 122°56'0 0.0
2018-Jan-11 13:31N 46°05' W 122°56'0 0.0
2018-Jan-11 13:00N 46°05' W 122°56'0 0.0
2018-Jan-11 12:30N 46°05' W 122°56'0 0.0
2018-Jan-11 12:00N 46°05' W 122°56'2 4.4
2018-Jan-11 11:30N 46°07' W 122°58'1 1.0
2018-Jan-11 11:00N 46°06' W 122°58'1 1.4
2018-Jan-11 10:31N 46°06' W 122°57'3 6.5
2018-Jan-11 10:01N 46°04' W 122°53'4 7.6
2018-Jan-11 09:31N 46°01' W 122°51'4 7.3
2018-Jan-11 09:00N 45°57' W 122°49'4 7.3
2018-Jan-11 08:31N 45°54' W 122°48'4 7.2
2018-Jan-11 08:01N 45°50' W 122°47'4 7.0
2018-Jan-11 07:30N 45°47' W 122°46'4 7.2
2018-Jan-11 07:01N 45°43' W 122°46'4 7.2
2018-Jan-11 06:31N 45°40' W 122°46'4 7.3
2018-Jan-11 06:00N 45°38' W 122°41'3 6.7
2018-Jan-11 05:31N 45°36' W 122°37'4 7.8
2018-Jan-11 05:00N 45°35' W 122°32'4 7.9
2018-Jan-11 04:30N 45°34' W 122°26'4 7.8
2018-Jan-11 04:00N 45°34' W 122°21'4 7.3
2018-Jan-11 03:30N 45°33' W 122°16'4 7.5
2018-Jan-11 03:01N 45°34' W 122°11'4 7.0
2018-Jan-11 02:26N 45°35' W 122°06'4 8.7
2018-Jan-11 02:00N 45°37' W 122°01'5 2.9
2018-Jan-11 00:19N 45°39' W 121°54'2 6.4
2018-Jan-10 23:58N 45°41' W 121°53'  

Dump ship's entire track history